Time;durP1;ratioP1;P1;durP2;ratioP2;P2;SDS_P1;SDS_P2;PMS_P1;PMS_P2;Temp;Humidity;BMP_temperature;BMP_pressure;BME280_temperature;BME280_humidity;BME280_pressure;Samples;Min_cycle;Max_cycle;Signal;HPM_P1;HPM_P2
2023/04/21 00:01:26;;;;;;;;;;;9.30;86.40;;;;;;5071907;28;19935;-63
2023/04/21 00:03:54;;;;;;;;;;;9.30;86.30;;;;;;5071991;28;19940;-63
2023/04/21 00:06:21;;;;;;;;;;;9.30;86.50;;;;;;5070939;28;20007;-62
2023/04/21 00:08:48;;;;;;;;;;;9.30;86.30;;;;;;5071482;28;20015;-62
2023/04/21 00:11:14;;;;;;;;;;;9.30;86.20;;;;;;5071570;28;20389;-63
2023/04/21 00:13:43;;;;;;;;;;;9.30;86.20;;;;;;5072319;28;19928;-63
2023/04/21 00:16:09;;;;;;;;;;;9.30;86.30;;;;;;5071554;28;19928;-63
2023/04/21 00:18:36;;;;;;;;;;;9.30;86.30;;;;;;5067400;28;19928;-62
2023/04/21 00:21:03;;;;;;;;;;;9.30;86.70;;;;;;5072481;28;20299;-63
2023/04/21 00:23:29;;;;;;;;;;;9.30;86.30;;;;;;5071723;28;19924;-63
2023/04/21 00:25:56;;;;;;;;;;;9.30;86.40;;;;;;5069929;28;20303;-62
2023/04/21 00:28:23;;;;;;;;;;;9.30;86.30;;;;;;5071140;28;19942;-64
2023/04/21 00:30:53;;;;;;;;;;;9.30;86.30;;;;;;5071031;28;19928;-63
2023/04/21 00:33:20;;;;;;;;;;;9.30;86.40;;;;;;5071605;28;19925;-63
2023/04/21 00:35:47;;;;;;;;;;;9.30;86.40;;;;;;5054501;28;19932;-63
2023/04/21 00:38:14;;;;;;;;;;;9.30;86.40;;;;;;5046730;28;21091;-64
2023/04/21 00:40:42;;;;;;;;;;;9.30;86.40;;;;;;5071409;28;20295;-62
2023/04/21 00:43:11;;;;;;;;;;;9.30;86.40;;;;;;5071383;28;19924;-62
2023/04/21 00:45:38;;;;;;;;;;;9.30;86.30;;;;;;5070176;28;19928;-63
2023/04/21 00:48:06;;;;;;;;;;;9.30;86.40;;;;;;5046742;28;19929;-63
2023/04/21 00:50:33;;;;;;;;;;;9.30;86.50;;;;;;5069143;28;19924;-62
2023/04/21 00:53:00;;;;;;;;;;;9.30;86.80;;;;;;5053419;28;20434;-63
2023/04/21 00:55:27;;;;;;;;;;;9.30;86.60;;;;;;5069558;28;20019;-63
2023/04/21 00:57:55;;;;;;;;;;;9.30;86.70;;;;;;5071570;28;19928;-63
2023/04/21 01:00:21;;;;;;;;;;;9.20;86.90;;;;;;5069869;28;19936;-63
2023/04/21 01:02:48;;;;;;;;;;;9.20;86.40;;;;;;5070217;28;19925;-63
2023/04/21 01:05:17;;;;;;;;;;;9.20;86.80;;;;;;5071386;28;19932;-61
2023/04/21 01:07:44;;;;;;;;;;;9.20;86.90;;;;;;5062117;28;20002;-63
2023/04/21 01:10:11;;;;;;;;;;;9.20;87.00;;;;;;5068808;28;19946;-62
2023/04/21 01:12:42;;;;;;;;;;;9.20;87.00;;;;;;5051732;28;19932;-62
2023/04/21 01:15:09;;;;;;;;;;;9.30;87.00;;;;;;5070539;28;19982;-63
2023/04/21 01:17:37;;;;;;;;;;;9.20;87.20;;;;;;5070985;28;19928;-63
2023/04/21 01:20:07;;;;;;;;;;;9.20;87.00;;;;;;5069103;28;19951;-62
2023/04/21 01:22:37;;;;;;;;;;;9.20;87.30;;;;;;5070735;28;19940;-63
2023/04/21 01:25:04;;;;;;;;;;;9.20;87.30;;;;;;5071416;28;19954;-62
2023/04/21 01:27:31;;;;;;;;;;;9.20;87.70;;;;;;5067672;28;19929;-61
2023/04/21 01:29:58;;;;;;;;;;;9.10;87.90;;;;;;5051162;28;20405;-62
2023/04/21 01:32:28;;;;;;;;;;;9.20;88.00;;;;;;5069095;28;19935;-63
2023/04/21 01:34:56;;;;;;;;;;;9.20;88.00;;;;;;5070458;28;20393;-63
2023/04/21 01:37:24;;;;;;;;;;;9.10;87.90;;;;;;5069857;28;19924;-61
2023/04/21 01:39:54;;;;;;;;;;;9.20;87.70;;;;;;5052561;28;19925;-63
2023/04/21 01:42:21;;;;;;;;;;;9.20;87.60;;;;;;5070866;28;19925;-62
2023/04/21 01:44:48;;;;;;;;;;;9.20;87.90;;;;;;5069263;28;19929;-62
2023/04/21 01:47:17;;;;;;;;;;;9.10;88.10;;;;;;5043421;28;19998;-61
2023/04/21 01:49:44;;;;;;;;;;;9.20;88.10;;;;;;5071251;28;19962;-61
2023/04/21 01:52:12;;;;;;;;;;;9.10;88.20;;;;;;5070018;28;19924;-63
2023/04/21 01:54:39;;;;;;;;;;;9.10;88.30;;;;;;5068145;28;20015;-64
2023/04/21 01:57:08;;;;;;;;;;;9.10;88.30;;;;;;5069912;28;19931;-62
2023/04/21 01:59:35;;;;;;;;;;;9.10;88.10;;;;;;5068464;28;19946;-62
2023/04/21 02:02:02;;;;;;;;;;;9.10;88.10;;;;;;5051968;28;20297;-63
2023/04/21 02:04:29;;;;;;;;;;;9.20;88.10;;;;;;5051196;28;20426;-64
2023/04/21 02:06:56;;;;;;;;;;;9.10;88.30;;;;;;5052063;28;19928;-63
2023/04/21 02:09:22;;;;;;;;;;;9.10;88.30;;;;;;5068880;28;20011;-62
2023/04/21 02:11:52;;;;;;;;;;;9.10;88.40;;;;;;5069039;28;19924;-63
2023/04/21 02:14:20;;;;;;;;;;;9.10;88.30;;;;;;5069602;28;19939;-63
2023/04/21 02:16:47;;;;;;;;;;;9.10;88.30;;;;;;5052075;28;19924;-64
2023/04/21 02:19:14;;;;;;;;;;;9.10;88.40;;;;;;5068824;28;19924;-62
2023/04/21 02:21:40;;;;;;;;;;;9.10;88.40;;;;;;5051863;28;19935;-63
2023/04/21 02:24:07;;;;;;;;;;;9.10;88.40;;;;;;5070334;28;19928;-61
2023/04/21 02:26:34;;;;;;;;;;;9.10;88.40;;;;;;5068907;28;20522;-62
2023/04/21 02:29:01;;;;;;;;;;;9.10;88.40;;;;;;5068695;28;19924;-63
2023/04/21 02:31:29;;;;;;;;;;;9.10;88.40;;;;;;5068166;28;20434;-62
2023/04/21 02:33:56;;;;;;;;;;;9.10;88.30;;;;;;5069833;28;19929;-62
2023/04/21 02:36:23;;;;;;;;;;;9.10;88.30;;;;;;5051056;28;20023;-64
2023/04/21 02:38:50;;;;;;;;;;;9.10;88.30;;;;;;5068838;28;19925;-64
2023/04/21 02:41:16;;;;;;;;;;;9.10;88.40;;;;;;5069390;28;19933;-63
2023/04/21 02:43:43;;;;;;;;;;;9.10;88.50;;;;;;5068949;28;19951;-64
2023/04/21 02:46:10;;;;;;;;;;;9.20;88.40;;;;;;5069336;28;19939;-61
2023/04/21 02:48:38;;;;;;;;;;;9.10;88.40;;;;;;5068299;28;19925;-63
2023/04/21 02:51:10;;;;;;;;;;;9.20;88.50;;;;;;5044487;28;20043;-62
2023/04/21 02:53:37;;;;;;;;;;;9.10;88.50;;;;;;5052027;28;19929;-61
2023/04/21 02:56:04;;;;;;;;;;;9.20;88.50;;;;;;5068670;28;19947;-63
2023/04/21 02:58:31;;;;;;;;;;;9.10;88.50;;;;;;5074179;28;20015;-61
2023/04/21 03:00:58;;;;;;;;;;;9.20;88.50;;;;;;5054796;28;20263;-62
2023/04/21 03:03:24;;;;;;;;;;;9.10;88.60;;;;;;5072749;28;20367;-62
2023/04/21 03:05:57;;;;;;;;;;;9.10;88.50;;;;;;5070841;28;19933;-63
2023/04/21 03:08:23;;;;;;;;;;;9.20;88.60;;;;;;5071155;28;19932;-61
2023/04/21 03:10:50;;;;;;;;;;;9.20;88.50;;;;;;5050638;28;19936;-63
2023/04/21 03:13:17;;;;;;;;;;;9.20;88.50;;;;;;5071392;28;19924;-62
2023/04/21 03:15:44;;;;;;;;;;;9.20;88.50;;;;;;5072871;28;20316;-63
2023/04/21 03:18:11;;;;;;;;;;;9.10;88.60;;;;;;5071241;28;19936;-63
2023/04/21 03:20:38;;;;;;;;;;;9.20;88.40;;;;;;5072478;28;19931;-64
2023/04/21 03:23:06;;;;;;;;;;;9.20;88.40;;;;;;5072859;28;19929;-63
2023/04/21 03:25:32;;;;;;;;;;;9.20;88.50;;;;;;5072244;28;19924;-63
2023/04/21 03:27:59;;;;;;;;;;;9.10;88.70;;;;;;5055014;28;19990;-62
2023/04/21 03:30:26;;;;;;;;;;;9.20;88.70;;;;;;5054765;28;19939;-62
2023/04/21 03:32:54;;;;;;;;;;;9.20;88.50;;;;;;5054339;28;19952;-63
2023/04/21 03:35:21;;;;;;;;;;;9.20;88.30;;;;;;5072829;28;19935;-63
2023/04/21 03:37:48;;;;;;;;;;;9.20;88.40;;;;;;5071900;28;19931;-61
2023/04/21 03:40:16;;;;;;;;;;;9.20;88.50;;;;;;5069219;28;19981;-61
2023/04/21 03:42:43;;;;;;;;;;;9.20;88.70;;;;;;5071871;28;19928;-63
2023/04/21 03:45:10;;;;;;;;;;;9.10;88.60;;;;;;5072588;28;20027;-63
2023/04/21 03:47:37;;;;;;;;;;;9.20;88.60;;;;;;5054733;28;19935;-63
2023/04/21 03:50:04;;;;;;;;;;;9.10;88.60;;;;;;5071694;28;19931;-62
2023/04/21 03:52:30;;;;;;;;;;;9.20;88.60;;;;;;5071417;28;19924;-63
2023/04/21 03:54:57;;;;;;;;;;;9.10;88.60;;;;;;5071930;28;20030;-62
2023/04/21 03:57:25;;;;;;;;;;;9.10;88.80;;;;;;5073110;28;19939;-61
2023/04/21 03:59:52;;;;;;;;;;;9.10;88.80;;;;;;5072249;28;19935;-62
2023/04/21 04:02:19;;;;;;;;;;;9.10;88.80;;;;;;5073119;28;19944;-63
2023/04/21 04:04:46;;;;;;;;;;;9.10;88.80;;;;;;5070711;28;19928;-63
2023/04/21 04:07:12;;;;;;;;;;;9.10;88.80;;;;;;5067358;28;20351;-62
2023/04/21 04:09:39;;;;;;;;;;;9.10;88.70;;;;;;5070675;28;19924;-62
2023/04/21 04:12:06;;;;;;;;;;;9.10;88.70;;;;;;5072419;28;19951;-63
2023/04/21 04:14:34;;;;;;;;;;;9.20;88.70;;;;;;5071717;28;19935;-62
2023/04/21 04:17:00;;;;;;;;;;;9.10;88.60;;;;;;5067326;28;19928;-62
2023/04/21 04:19:30;;;;;;;;;;;9.20;88.60;;;;;;5072029;28;19932;-64
2023/04/21 04:21:57;;;;;;;;;;;9.20;88.60;;;;;;5050217;28;20027;-63
2023/04/21 04:24:25;;;;;;;;;;;9.20;88.70;;;;;;5072419;28;19924;-62
2023/04/21 04:26:53;;;;;;;;;;;9.20;88.80;;;;;;5072003;28;19997;-63
2023/04/21 04:29:20;;;;;;;;;;;9.20;88.90;;;;;;5071878;28;19928;-63
2023/04/21 04:31:49;;;;;;;;;;;9.20;88.80;;;;;;5072306;28;20363;-63
2023/04/21 04:34:16;;;;;;;;;;;9.20;88.70;;;;;;5071421;28;19929;-62
2023/04/21 04:36:43;;;;;;;;;;;9.20;88.60;;;;;;5047530;28;19928;-63
2023/04/21 04:39:11;;;;;;;;;;;9.20;88.50;;;;;;5071543;28;19928;-62
2023/04/21 04:41:38;;;;;;;;;;;9.20;88.60;;;;;;5071322;28;19933;-63
2023/04/21 04:44:05;;;;;;;;;;;9.20;88.90;;;;;;5071674;28;20342;-63
2023/04/21 04:46:32;;;;;;;;;;;9.20;88.80;;;;;;5070372;28;19960;-61
2023/04/21 04:49:00;;;;;;;;;;;9.20;88.60;;;;;;5070704;28;19928;-62
2023/04/21 04:51:26;;;;;;;;;;;9.20;88.70;;;;;;5071024;28;19954;-64
2023/04/21 04:53:53;;;;;;;;;;;9.20;88.70;;;;;;5060558;28;19928;-63
2023/04/21 04:56:20;;;;;;;;;;;9.20;88.50;;;;;;5072590;28;19936;-63
2023/04/21 04:58:47;;;;;;;;;;;9.30;88.50;;;;;;5070523;28;20583;-62
2023/04/21 05:01:14;;;;;;;;;;;9.30;88.80;;;;;;5071825;28;19936;-62
2023/04/21 05:03:41;;;;;;;;;;;9.20;88.70;;;;;;5070465;28;20261;-63
2023/04/21 05:06:09;;;;;;;;;;;9.30;88.80;;;;;;5053929;28;20241;-62
2023/04/21 05:08:36;;;;;;;;;;;9.30;88.70;;;;;;5070226;28;19924;-62
2023/04/21 05:11:03;;;;;;;;;;;9.30;88.70;;;;;;5071042;28;19931;-61
2023/04/21 05:13:29;;;;;;;;;;;9.30;88.70;;;;;;5070633;28;19929;-63
2023/04/21 05:15:57;;;;;;;;;;;9.40;88.70;;;;;;5069676;28;20328;-62
2023/04/21 05:18:24;;;;;;;;;;;9.40;88.60;;;;;;5068117;28;19935;-62
2023/04/21 05:20:51;;;;;;;;;;;9.40;88.70;;;;;;5072432;28;19929;-63
2023/04/21 05:23:19;;;;;;;;;;;9.50;88.50;;;;;;5071079;28;20050;-62
2023/04/21 05:25:46;;;;;;;;;;;9.50;88.60;;;;;;5071302;28;20351;-62
2023/04/21 05:28:12;;;;;;;;;;;9.50;88.60;;;;;;5070762;28;19937;-63
2023/04/21 05:30:39;;;;;;;;;;;9.50;88.80;;;;;;5070069;28;19928;-62
2023/04/21 05:33:06;;;;;;;;;;;9.60;88.60;;;;;;5070472;28;19928;-63
2023/04/21 05:35:33;;;;;;;;;;;9.70;88.40;;;;;;5070601;28;19936;-62
2023/04/21 05:37:59;;;;;;;;;;;9.70;88.20;;;;;;5070179;28;19951;-63
2023/04/21 05:40:27;;;;;;;;;;;9.80;88.30;;;;;;5069008;28;19925;-63
2023/04/21 05:42:54;;;;;;;;;;;9.80;88.20;;;;;;5069197;28;19932;-62
2023/04/21 05:45:21;;;;;;;;;;;9.80;87.60;;;;;;5071099;28;19928;-62
2023/04/21 05:47:47;;;;;;;;;;;9.90;88.00;;;;;;5070001;28;20333;-63
2023/04/21 05:50:15;;;;;;;;;;;9.90;88.00;;;;;;5070513;28;19929;-61
2023/04/21 05:52:41;;;;;;;;;;;9.90;88.40;;;;;;5070577;28;19940;-64
2023/04/21 05:55:08;;;;;;;;;;;9.90;88.30;;;;;;5069487;28;19947;-62
2023/04/21 05:57:36;;;;;;;;;;;10.00;88.10;;;;;;5070263;28;19943;-63
2023/04/21 06:00:03;;;;;;;;;;;10.00;87.30;;;;;;5067859;28;19931;-62
2023/04/21 06:02:32;;;;;;;;;;;10.10;88.00;;;;;;5068498;28;19932;-62
2023/04/21 06:04:58;;;;;;;;;;;10.10;88.20;;;;;;5070141;28;20031;-62
2023/04/21 06:07:25;;;;;;;;;;;10.20;88.30;;;;;;5069219;28;20019;-62
2023/04/21 06:09:52;;;;;;;;;;;10.20;87.70;;;;;;5065460;28;19951;-61
2023/04/21 06:12:19;;;;;;;;;;;10.20;88.00;;;;;;5070330;28;19935;-63
2023/04/21 06:14:47;;;;;;;;;;;10.20;88.00;;;;;;5070394;28;19928;-62
2023/04/21 06:17:16;;;;;;;;;;;10.20;88.10;;;;;;5070842;28;19948;-61
2023/04/21 06:19:42;;;;;;;;;;;10.20;87.80;;;;;;5070626;28;19928;-61
2023/04/21 06:22:09;;;;;;;;;;;10.20;87.80;;;;;;5070527;28;19950;-62
2023/04/21 06:24:36;;;;;;;;;;;10.30;88.00;;;;;;5069819;28;19928;-62
2023/04/21 06:27:03;;;;;;;;;;;10.30;87.60;;;;;;5070177;28;20048;-62
2023/04/21 06:29:29;;;;;;;;;;;10.30;86.80;;;;;;5069845;28;19928;-62
2023/04/21 06:31:57;;;;;;;;;;;10.30;87.10;;;;;;5070024;28;19924;-61
2023/04/21 06:34:24;;;;;;;;;;;10.30;86.80;;;;;;5069223;28;20808;-63
2023/04/21 06:36:51;;;;;;;;;;;10.30;87.30;;;;;;5069956;28;19936;-62
2023/04/21 06:39:18;;;;;;;;;;;10.40;87.40;;;;;;5069276;28;19933;-61
2023/04/21 06:41:45;;;;;;;;;;;10.40;87.70;;;;;;5069682;28;19943;-62
2023/04/21 06:44:12;;;;;;;;;;;10.40;87.70;;;;;;5069031;28;19925;-63
2023/04/21 06:46:40;;;;;;;;;;;10.40;87.80;;;;;;5070653;28;19932;-62
2023/04/21 06:49:08;;;;;;;;;;;10.50;87.80;;;;;;5068343;28;19933;-61
2023/04/21 06:51:36;;;;;;;;;;;10.50;87.90;;;;;;5069443;28;19978;-61
2023/04/21 06:54:03;;;;;;;;;;;10.50;87.90;;;;;;5068935;28;19932;-61
2023/04/21 06:56:30;;;;;;;;;;;10.60;87.70;;;;;;5069162;28;19933;-61
2023/04/21 06:58:57;;;;;;;;;;;10.60;87.80;;;;;;5066427;28;19924;-62
2023/04/21 07:01:23;;;;;;;;;;;10.60;87.70;;;;;;5069507;28;19932;-61
2023/04/21 07:03:50;;;;;;;;;;;10.60;87.80;;;;;;5068398;28;19928;-62
2023/04/21 07:06:18;;;;;;;;;;;10.60;87.60;;;;;;5070118;28;19935;-60
2023/04/21 07:08:45;;;;;;;;;;;10.70;87.60;;;;;;5068679;28;20007;-61
2023/04/21 07:11:12;;;;;;;;;;;10.70;87.60;;;;;;5068908;28;19929;-63
2023/04/21 07:13:39;;;;;;;;;;;10.80;87.40;;;;;;5069489;28;19928;-62
2023/04/21 07:16:06;;;;;;;;;;;10.90;87.50;;;;;;5069412;28;20425;-62
2023/04/21 07:18:33;;;;;;;;;;;11.00;87.50;;;;;;5067914;28;20387;-62
2023/04/21 07:21:00;;;;;;;;;;;11.10;87.30;;;;;;5069395;28;19932;-61
2023/04/21 07:23:28;;;;;;;;;;;11.10;87.30;;;;;;5068980;28;19928;-63
2023/04/21 07:25:57;;;;;;;;;;;11.20;87.20;;;;;;5069794;28;20341;-64
2023/04/21 07:28:25;;;;;;;;;;;11.40;87.00;;;;;;5069094;28;19970;-61
2023/04/21 07:30:52;;;;;;;;;;;11.50;87.00;;;;;;5069033;28;19924;-62
2023/04/21 07:33:19;;;;;;;;;;;11.60;86.80;;;;;;5069225;28;20373;-61
2023/04/21 07:35:45;;;;;;;;;;;11.50;86.60;;;;;;5068090;28;19928;-63
2023/04/21 07:38:12;;;;;;;;;;;11.50;86.40;;;;;;5067160;28;19924;-61
2023/04/21 07:40:40;;;;;;;;;;;11.60;86.30;;;;;;5069232;28;19932;-62
2023/04/21 07:43:07;;;;;;;;;;;11.50;86.40;;;;;;5071236;28;19925;-63
2023/04/21 07:45:34;;;;;;;;;;;11.60;86.60;;;;;;5072086;28;19929;-62
2023/04/21 07:48:01;;;;;;;;;;;11.60;86.60;;;;;;5072863;28;19924;-62
2023/04/21 07:50:28;;;;;;;;;;;11.60;86.60;;;;;;5072483;28;19934;-63
2023/04/21 07:52:54;;;;;;;;;;;11.70;86.40;;;;;;5072305;28;19982;-62
2023/04/21 07:55:21;;;;;;;;;;;11.70;86.50;;;;;;5072076;28;20047;-62
2023/04/21 07:57:49;;;;;;;;;;;11.70;86.60;;;;;;5073705;28;19924;-62
2023/04/21 08:00:16;;;;;;;;;;;11.80;86.40;;;;;;5073357;28;20411;-67
2023/04/21 08:02:43;;;;;;;;;;;11.90;86.40;;;;;;5072474;28;19952;-67
2023/04/21 08:05:10;;;;;;;;;;;12.00;86.10;;;;;;5073263;28;19929;-68
2023/04/21 08:07:38;;;;;;;;;;;12.10;86.00;;;;;;5069606;28;20470;-66
2023/04/21 08:10:05;;;;;;;;;;;12.20;85.80;;;;;;5070015;28;20459;-67
2023/04/21 08:12:32;;;;;;;;;;;12.30;85.50;;;;;;5072839;28;20005;-67
2023/04/21 08:15:04;;;;;;;;;;;12.50;85.30;;;;;;5067923;28;20291;-69
2023/04/21 08:17:31;;;;;;;;;;;12.60;85.00;;;;;;5072640;28;19929;-67
2023/04/21 08:19:58;;;;;;;;;;;12.70;84.70;;;;;;5073346;28;19935;-68
2023/04/21 08:22:24;;;;;;;;;;;12.80;84.20;;;;;;5070005;28;19924;-67
2023/04/21 08:24:51;;;;;;;;;;;12.80;84.10;;;;;;5071648;28;19929;-68
2023/04/21 08:27:18;;;;;;;;;;;12.90;83.60;;;;;;5071034;28;19924;-68
2023/04/21 08:29:44;;;;;;;;;;;12.80;83.40;;;;;;5045447;28;19928;-68
2023/04/21 08:32:13;;;;;;;;;;;12.90;83.10;;;;;;5074078;28;19936;-67
2023/04/21 08:34:39;;;;;;;;;;;13.10;82.30;;;;;;5070439;28;19934;-67
2023/04/21 08:37:06;;;;;;;;;;;13.20;82.50;;;;;;5071786;28;19929;-68
2023/04/21 08:39:33;;;;;;;;;;;13.50;81.70;;;;;;5071739;28;20820;-68
2023/04/21 08:42:00;;;;;;;;;;;13.60;82.00;;;;;;5071618;28;19928;-68
2023/04/21 08:44:27;;;;;;;;;;;13.60;81.40;;;;;;5071809;28;19940;-68
2023/04/21 08:46:55;;;;;;;;;;;13.60;81.00;;;;;;5072466;28;19932;-68
2023/04/21 08:49:24;;;;;;;;;;;13.50;81.30;;;;;;5046349;28;19997;-67
2023/04/21 08:51:50;;;;;;;;;;;13.50;80.90;;;;;;5071109;28;19935;-67
2023/04/21 08:54:17;;;;;;;;;;;13.50;80.90;;;;;;5071584;28;19924;-68
2023/04/21 08:56:44;;;;;;;;;;;13.60;81.10;;;;;;5071004;28;20414;-67
2023/04/21 08:59:11;;;;;;;;;;;13.60;81.20;;;;;;5068390;28;20370;-66
2023/04/21 09:01:52;;;;;;;;;;;13.70;81.00;;;;;;5071941;28;19931;-68
2023/04/21 09:04:19;;;;;;;;;;;13.90;80.80;;;;;;5071488;28;19938;-69
2023/04/21 09:06:47;;;;;;;;;;;14.10;79.70;;;;;;5072253;28;19933;-67
2023/04/21 09:09:14;;;;;;;;;;;14.40;79.10;;;;;;5070853;28;19928;-68
2023/04/21 09:11:41;;;;;;;;;;;14.70;78.00;;;;;;5072228;28;19972;-66
2023/04/21 09:14:08;;;;;;;;;;;15.00;77.30;;;;;;5071632;28;19932;-66
2023/04/21 09:16:35;;;;;;;;;;;15.00;76.80;;;;;;5070749;28;19991;-68
2023/04/21 09:19:02;;;;;;;;;;;15.00;76.30;;;;;;5071841;28;20311;-67
2023/04/21 09:21:29;;;;;;;;;;;15.00;75.80;;;;;;5074056;28;19924;-68
2023/04/21 09:23:57;;;;;;;;;;;15.00;75.60;;;;;;5071629;28;19928;-67
2023/04/21 09:26:23;;;;;;;;;;;15.10;75.10;;;;;;5070234;28;20394;-67
2023/04/21 09:28:51;;;;;;;;;;;15.20;74.60;;;;;;5071220;28;19933;-69
2023/04/21 09:31:19;;;;;;;;;;;15.20;74.50;;;;;;5069979;28;19982;-68
2023/04/21 09:33:46;;;;;;;;;;;15.30;74.20;;;;;;5052681;28;19932;-66
2023/04/21 09:36:20;;;;;;;;;;;15.40;74.10;;;;;;5070021;28;19932;-67
2023/04/21 09:38:50;;;;;;;;;;;15.40;73.90;;;;;;5071187;28;19924;-67
2023/04/21 09:41:19;;;;;;;;;;;15.30;73.60;;;;;;5070743;28;19928;-66
2023/04/21 09:43:45;;;;;;;;;;;15.20;73.10;;;;;;5050591;28;19929;-67
2023/04/21 09:46:13;;;;;;;;;;;15.10;73.00;;;;;;5070059;28;19932;-67
2023/04/21 09:48:43;;;;;;;;;;;15.10;72.60;;;;;;5070139;28;19939;-66
2023/04/21 09:51:11;;;;;;;;;;;15.00;72.80;;;;;;5068253;28;19947;-67
2023/04/21 09:53:38;;;;;;;;;;;15.10;72.60;;;;;;5070338;28;19929;-65
2023/04/21 09:56:06;;;;;;;;;;;15.40;72.60;;;;;;5069530;28;19936;-67
2023/04/21 09:58:40;;;;;;;;;;;15.60;72.00;;;;;;5068833;28;21412;-67
2023/04/21 10:01:07;;;;;;;;;;;15.80;71.50;;;;;;5070740;28;19928;-67
2023/04/21 10:03:38;;;;;;;;;;;16.10;71.40;;;;;;5070176;28;19928;-67
2023/04/21 10:06:05;;;;;;;;;;;16.20;71.10;;;;;;5067777;28;19928;-66
2023/04/21 10:08:32;;;;;;;;;;;16.20;71.20;;;;;;5066172;28;19928;-67
2023/04/21 10:10:59;;;;;;;;;;;16.30;71.30;;;;;;5069861;28;19966;-67
2023/04/21 10:13:26;;;;;;;;;;;16.20;70.70;;;;;;5068928;28;20056;-68
2023/04/21 10:16:03;;;;;;;;;;;16.20;70.20;;;;;;5065394;28;19925;-68
2023/04/21 10:18:30;;;;;;;;;;;16.30;70.20;;;;;;5065999;28;20399;-68
2023/04/21 10:20:57;;;;;;;;;;;16.20;69.80;;;;;;5069057;28;19924;-66
2023/04/21 10:23:28;;;;;;;;;;;16.30;69.30;;;;;;5069459;28;19935;-66
2023/04/21 10:25:59;;;;;;;;;;;16.40;69.30;;;;;;5068585;28;19928;-66
2023/04/21 10:28:38;;;;;;;;;;;16.50;68.30;;;;;;5068181;28;19940;-68
2023/04/21 10:31:18;;;;;;;;;;;16.60;67.90;;;;;;5068439;28;19924;-66
2023/04/21 10:34:11;;;;;;;;;;;16.80;67.80;;;;;;5067811;28;19933;-67
2023/04/21 10:36:42;;;;;;;;;;;17.00;67.10;;;;;;5069141;28;19935;-68
2023/04/21 10:39:11;;;;;;;;;;;17.20;66.60;;;;;;5069731;28;19936;-66
2023/04/21 10:41:38;;;;;;;;;;;17.40;66.20;;;;;;5066304;28;19924;-68
2023/04/21 10:44:11;;;;;;;;;;;17.50;66.00;;;;;;5066717;28;19932;-67
2023/04/21 10:46:40;;;;;;;;;;;17.60;66.40;;;;;;5070598;28;20265;-68
2023/04/21 10:49:08;;;;;;;;;;;17.60;65.50;;;;;;5070187;28;19924;-67
2023/04/21 10:51:50;;;;;;;;;;;17.60;65.80;;;;;;5069010;28;19951;-68
2023/04/21 10:54:16;;;;;;;;;;;17.70;65.20;;;;;;5065151;28;19929;-67
2023/04/21 10:56:43;;;;;;;;;;;17.70;65.10;;;;;;5070086;28;20299;-68
2023/04/21 10:59:10;;;;;;;;;;;17.80;65.10;;;;;;5070086;28;19951;-66
2023/04/21 11:01:41;;;;;;;;;;;17.80;64.60;;;;;;5069718;28;20059;-66
2023/04/21 11:04:13;;;;;;;;;;;17.70;64.80;;;;;;5069089;28;19929;-69
2023/04/21 11:06:39;;;;;;;;;;;17.70;64.60;;;;;;5067407;28;19935;-67
2023/04/21 11:09:06;;;;;;;;;;;17.70;64.80;;;;;;5065635;28;19924;-68
2023/04/21 11:11:35;;;;;;;;;;;17.60;64.60;;;;;;5069131;28;19931;-66
2023/04/21 11:14:02;;;;;;;;;;;17.60;64.40;;;;;;5066965;28;20034;-67
2023/04/21 11:16:28;;;;;;;;;;;17.60;64.70;;;;;;5067228;28;20291;-67
2023/04/21 11:18:56;;;;;;;;;;;17.60;64.10;;;;;;5070256;28;19932;-66
2023/04/21 11:21:23;;;;;;;;;;;17.60;64.10;;;;;;5044824;28;19935;-67
2023/04/21 11:23:51;;;;;;;;;;;17.60;64.00;;;;;;5073557;28;19924;-67
2023/04/21 11:26:19;;;;;;;;;;;17.70;64.40;;;;;;5071752;28;19924;-67
2023/04/21 11:28:48;;;;;;;;;;;17.70;64.20;;;;;;5073748;28;20024;-66
2023/04/21 11:31:18;;;;;;;;;;;17.70;63.20;;;;;;5075290;28;19924;-67
2023/04/21 11:33:45;;;;;;;;;;;17.80;62.40;;;;;;5074048;28;19929;-64
2023/04/21 11:36:14;;;;;;;;;;;18.00;62.30;;;;;;5072914;28;19938;-67
2023/04/21 11:38:42;;;;;;;;;;;18.10;62.70;;;;;;5072096;28;20324;-64
2023/04/21 11:41:09;;;;;;;;;;;18.20;63.00;;;;;;5072420;28;19968;-67
2023/04/21 11:43:36;;;;;;;;;;;18.20;63.00;;;;;;5071379;28;19935;-63
2023/04/21 11:46:27;;;;;;;;;;;18.10;62.90;;;;;;5070403;28;19936;-66
2023/04/21 11:49:00;;;;;;;;;;;18.10;62.30;;;;;;5050195;28;20296;-66
2023/04/21 11:51:32;;;;;;;;;;;18.10;63.50;;;;;;5070787;28;19929;-65
2023/04/21 11:53:58;;;;;;;;;;;18.10;63.50;;;;;;5071050;28;19967;-65
2023/04/21 11:56:26;;;;;;;;;;;18.10;63.00;;;;;;5071785;28;19932;-66
2023/04/21 11:58:52;;;;;;;;;;;18.10;63.30;;;;;;5070953;28;19929;-65
2023/04/21 12:01:20;;;;;;;;;;;18.10;63.00;;;;;;5072971;28;19924;-67
2023/04/21 12:03:53;;;;;;;;;;;18.00;62.80;;;;;;5072023;28;20019;-66
2023/04/21 12:06:21;;;;;;;;;;;17.90;63.00;;;;;;5073109;28;20027;-66
2023/04/21 12:08:49;;;;;;;;;;;18.00;62.40;;;;;;5070201;28;20287;-66
2023/04/21 12:11:16;;;;;;;;;;;18.10;60.60;;;;;;5072108;28;20410;-67
2023/04/21 12:13:44;;;;;;;;;;;18.10;60.50;;;;;;5072719;28;19928;-65
2023/04/21 12:16:12;;;;;;;;;;;18.10;61.30;;;;;;5071118;28;20208;-65
2023/04/21 12:18:39;;;;;;;;;;;18.10;62.00;;;;;;5067492;28;19928;-65
2023/04/21 12:21:05;;;;;;;;;;;18.20;61.00;;;;;;5071862;28;19928;-65
2023/04/21 12:23:32;;;;;;;;;;;18.30;60.20;;;;;;5069651;28;19928;-66
2023/04/21 12:26:00;;;;;;;;;;;18.40;59.80;;;;;;5072019;28;19943;-66
2023/04/21 12:28:29;;;;;;;;;;;18.50;60.80;;;;;;5071539;28;19982;-67
2023/04/21 12:30:56;;;;;;;;;;;18.60;61.80;;;;;;5072474;28;19928;-67
2023/04/21 12:33:22;;;;;;;;;;;18.60;61.20;;;;;;5071474;28;20371;-67
2023/04/21 12:35:49;;;;;;;;;;;18.70;61.20;;;;;;5071840;28;20015;-67
2023/04/21 12:38:16;;;;;;;;;;;18.80;59.70;;;;;;5068298;28;19966;-65
2023/04/21 12:40:43;;;;;;;;;;;18.90;58.80;;;;;;5069302;28;20406;-66
2023/04/21 12:43:11;;;;;;;;;;;19.00;59.50;;;;;;5071057;28;19925;-65
2023/04/21 12:45:37;;;;;;;;;;;19.00;59.30;;;;;;5071684;28;19928;-66
2023/04/21 12:48:05;;;;;;;;;;;18.90;58.80;;;;;;5069837;28;20233;-66
2023/04/21 12:50:32;;;;;;;;;;;18.90;59.50;;;;;;5071352;28;20023;-66
2023/04/21 12:52:59;;;;;;;;;;;18.90;57.80;;;;;;5059280;28;20273;-66
2023/04/21 12:55:25;;;;;;;;;;;18.80;58.80;;;;;;5069548;28;19929;-66
2023/04/21 12:57:52;;;;;;;;;;;18.90;58.80;;;;;;5071581;28;20256;-65
2023/04/21 13:00:20;;;;;;;;;;;18.90;57.00;;;;;;5071532;28;19925;-67
2023/04/21 13:02:47;;;;;;;;;;;18.90;57.60;;;;;;5069420;28;19930;-66
2023/04/21 13:05:14;;;;;;;;;;;18.90;56.90;;;;;;5071371;28;19925;-66
2023/04/21 13:07:41;;;;;;;;;;;18.80;57.20;;;;;;5067635;28;19948;-67
2023/04/21 13:10:08;;;;;;;;;;;18.80;57.00;;;;;;5070078;28;19928;-66
2023/04/21 13:12:35;;;;;;;;;;;18.80;57.00;;;;;;5070086;28;20363;-67
2023/04/21 13:15:01;;;;;;;;;;;18.80;57.30;;;;;;5070549;28;19924;-65
2023/04/21 13:17:30;;;;;;;;;;;18.80;57.70;;;;;;5052051;28;19925;-64
2023/04/21 13:19:56;;;;;;;;;;;18.70;57.90;;;;;;5070536;28;19929;-65
2023/04/21 13:22:23;;;;;;;;;;;18.70;57.10;;;;;;5068926;28;19928;-66
2023/04/21 13:24:50;;;;;;;;;;;18.70;56.90;;;;;;5070900;28;19932;-65
2023/04/21 13:27:17;;;;;;;;;;;18.70;58.10;;;;;;5053617;28;20296;-65
2023/04/21 13:29:44;;;;;;;;;;;18.60;56.40;;;;;;5070393;28;20255;-65
2023/04/21 13:32:11;;;;;;;;;;;18.60;56.80;;;;;;5069630;28;19936;-65
2023/04/21 13:34:39;;;;;;;;;;;18.60;56.70;;;;;;5070684;28;19968;-66
2023/04/21 13:37:09;;;;;;;;;;;18.60;58.20;;;;;;5067322;28;19928;-65
2023/04/21 13:39:36;;;;;;;;;;;18.60;59.60;;;;;;5068012;28;19928;-65
2023/04/21 13:42:03;;;;;;;;;;;18.60;58.10;;;;;;5067593;28;20035;-65
2023/04/21 13:44:29;;;;;;;;;;;18.60;57.50;;;;;;5070229;28;20235;-65
2023/04/21 13:46:56;;;;;;;;;;;18.60;58.40;;;;;;5069561;28;20291;-66
2023/04/21 13:49:23;;;;;;;;;;;18.60;57.00;;;;;;5068339;28;19931;-65
2023/04/21 13:51:51;;;;;;;;;;;18.60;56.70;;;;;;5068803;28;19935;-67
2023/04/21 13:54:18;;;;;;;;;;;18.60;56.30;;;;;;5069727;28;20014;-65
2023/04/21 13:56:44;;;;;;;;;;;18.60;57.70;;;;;;5067467;28;19970;-66
2023/04/21 13:59:13;;;;;;;;;;;18.60;55.00;;;;;;5068221;28;19928;-64
2023/04/21 14:01:40;;;;;;;;;;;18.70;55.60;;;;;;5069259;28;20016;-64
2023/04/21 14:04:07;;;;;;;;;;;18.70;55.60;;;;;;5070545;28;20379;-64
2023/04/21 14:06:33;;;;;;;;;;;18.80;55.00;;;;;;5067945;28;19928;-66
2023/04/21 14:09:03;;;;;;;;;;;18.90;54.40;;;;;;5066842;28;19935;-66
2023/04/21 14:11:30;;;;;;;;;;;18.90;55.50;;;;;;5069102;28;19924;-64
2023/04/21 14:13:56;;;;;;;;;;;18.80;55.30;;;;;;5067814;28;19925;-65
2023/04/21 14:16:23;;;;;;;;;;;18.80;55.30;;;;;;5067476;28;19939;-64
2023/04/21 14:18:51;;;;;;;;;;;18.90;55.90;;;;;;5069355;28;19978;-65
2023/04/21 14:21:17;;;;;;;;;;;19.00;54.40;;;;;;5068665;28;20402;-66
2023/04/21 14:23:44;;;;;;;;;;;19.00;55.60;;;;;;5070057;28;19925;-66